sensor_id;sensor_type;location;lat;lon;timestamp;P1;durP1;ratioP1;P2;durP2;ratioP2
5285;SDS011;2665;53.112;7.358;2023-04-15T00:00:51;4.23;;;2.33;;
5285;SDS011;2665;53.112;7.358;2023-04-15T00:03:18;2.60;;;1.50;;
5285;SDS011;2665;53.112;7.358;2023-04-15T00:05:44;3.60;;;2.20;;
5285;SDS011;2665;53.112;7.358;2023-04-15T00:08:10;3.57;;;2.30;;
5285;SDS011;2665;53.112;7.358;2023-04-15T00:10:37;3.70;;;1.80;;
5285;SDS011;2665;53.112;7.358;2023-04-15T00:13:03;4.73;;;2.13;;
5285;SDS011;2665;53.112;7.358;2023-04-15T00:15:29;3.33;;;2.00;;
5285;SDS011;2665;53.112;7.358;2023-04-15T00:17:55;2.50;;;1.93;;
5285;SDS011;2665;53.112;7.358;2023-04-15T00:20:22;4.53;;;2.23;;
5285;SDS011;2665;53.112;7.358;2023-04-15T00:22:48;3.70;;;2.37;;
5285;SDS011;2665;53.112;7.358;2023-04-15T00:25:14;5.30;;;2.23;;
5285;SDS011;2665;53.112;7.358;2023-04-15T00:27:40;4.33;;;1.83;;
5285;SDS011;2665;53.112;7.358;2023-04-15T00:30:07;3.10;;;2.13;;
5285;SDS011;2665;53.112;7.358;2023-04-15T00:32:33;3.20;;;2.07;;
5285;SDS011;2665;53.112;7.358;2023-04-15T00:34:59;3.10;;;2.60;;
5285;SDS011;2665;53.112;7.358;2023-04-15T00:37:26;2.67;;;1.80;;
5285;SDS011;2665;53.112;7.358;2023-04-15T00:39:52;3.97;;;2.27;;
5285;SDS011;2665;53.112;7.358;2023-04-15T00:42:18;3.27;;;2.30;;
5285;SDS011;2665;53.112;7.358;2023-04-15T00:44:45;4.00;;;1.97;;
5285;SDS011;2665;53.112;7.358;2023-04-15T00:47:11;4.97;;;2.70;;
5285;SDS011;2665;53.112;7.358;2023-04-15T00:49:38;5.50;;;1.83;;
5285;SDS011;2665;53.112;7.358;2023-04-15T00:52:04;2.90;;;2.00;;
5285;SDS011;2665;53.112;7.358;2023-04-15T00:54:30;3.50;;;2.20;;
5285;SDS011;2665;53.112;7.358;2023-04-15T00:56:56;4.30;;;2.40;;
5285;SDS011;2665;53.112;7.358;2023-04-15T00:59:22;3.33;;;1.73;;
5285;SDS011;2665;53.112;7.358;2023-04-15T01:01:48;3.80;;;1.97;;
5285;SDS011;2665;53.112;7.358;2023-04-15T01:04:15;2.60;;;1.87;;
5285;SDS011;2665;53.112;7.358;2023-04-15T01:06:41;4.23;;;1.80;;
5285;SDS011;2665;53.112;7.358;2023-04-15T01:09:07;2.93;;;1.90;;
5285;SDS011;2665;53.112;7.358;2023-04-15T01:11:33;2.87;;;2.00;;
5285;SDS011;2665;53.112;7.358;2023-04-15T01:14:00;3.60;;;2.10;;
5285;SDS011;2665;53.112;7.358;2023-04-15T01:16:26;5.07;;;2.33;;
5285;SDS011;2665;53.112;7.358;2023-04-15T01:18:52;3.83;;;2.53;;
5285;SDS011;2665;53.112;7.358;2023-04-15T01:21:18;3.57;;;2.33;;
5285;SDS011;2665;53.112;7.358;2023-04-15T01:23:45;3.00;;;2.00;;
5285;SDS011;2665;53.112;7.358;2023-04-15T01:26:12;3.87;;;2.23;;
5285;SDS011;2665;53.112;7.358;2023-04-15T01:28:38;5.90;;;2.30;;
5285;SDS011;2665;53.112;7.358;2023-04-15T01:31:05;3.60;;;2.30;;
5285;SDS011;2665;53.112;7.358;2023-04-15T01:33:35;3.40;;;2.50;;
5285;SDS011;2665;53.112;7.358;2023-04-15T01:36:02;4.33;;;2.30;;
5285;SDS011;2665;53.112;7.358;2023-04-15T01:38:28;3.33;;;2.07;;
5285;SDS011;2665;53.112;7.358;2023-04-15T01:40:55;4.63;;;2.40;;
5285;SDS011;2665;53.112;7.358;2023-04-15T01:43:21;3.53;;;2.30;;
5285;SDS011;2665;53.112;7.358;2023-04-15T01:45:47;3.20;;;2.20;;
5285;SDS011;2665;53.112;7.358;2023-04-15T01:48:12;2.77;;;2.00;;
5285;SDS011;2665;53.112;7.358;2023-04-15T01:50:38;6.13;;;1.97;;
5285;SDS011;2665;53.112;7.358;2023-04-15T01:53:04;3.43;;;2.30;;
5285;SDS011;2665;53.112;7.358;2023-04-15T01:55:29;3.53;;;2.30;;
5285;SDS011;2665;53.112;7.358;2023-04-15T01:57:55;3.13;;;2.40;;
5285;SDS011;2665;53.112;7.358;2023-04-15T02:00:21;4.67;;;2.27;;
5285;SDS011;2665;53.112;7.358;2023-04-15T02:02:47;2.70;;;1.83;;
5285;SDS011;2665;53.112;7.358;2023-04-15T02:05:13;6.67;;;2.03;;
5285;SDS011;2665;53.112;7.358;2023-04-15T02:07:40;2.90;;;2.20;;
5285;SDS011;2665;53.112;7.358;2023-04-15T02:10:08;4.40;;;2.87;;
5285;SDS011;2665;53.112;7.358;2023-04-15T02:12:35;4.27;;;2.40;;
5285;SDS011;2665;53.112;7.358;2023-04-15T02:15:01;4.23;;;3.10;;
5285;SDS011;2665;53.112;7.358;2023-04-15T02:17:26;4.70;;;2.40;;
5285;SDS011;2665;53.112;7.358;2023-04-15T02:19:52;4.13;;;2.30;;
5285;SDS011;2665;53.112;7.358;2023-04-15T02:22:20;7.40;;;3.60;;
5285;SDS011;2665;53.112;7.358;2023-04-15T02:24:46;4.30;;;3.20;;
5285;SDS011;2665;53.112;7.358;2023-04-15T02:27:15;3.67;;;2.63;;
5285;SDS011;2665;53.112;7.358;2023-04-15T02:29:44;4.17;;;3.17;;
5285;SDS011;2665;53.112;7.358;2023-04-15T02:32:10;8.60;;;3.67;;
5285;SDS011;2665;53.112;7.358;2023-04-15T02:34:40;4.73;;;3.40;;
5285;SDS011;2665;53.112;7.358;2023-04-15T02:37:10;3.87;;;3.23;;
5285;SDS011;2665;53.112;7.358;2023-04-15T02:39:36;4.87;;;2.97;;
5285;SDS011;2665;53.112;7.358;2023-04-15T02:42:03;3.90;;;3.00;;
5285;SDS011;2665;53.112;7.358;2023-04-15T02:44:29;4.20;;;3.10;;
5285;SDS011;2665;53.112;7.358;2023-04-15T02:47:00;5.70;;;3.07;;
5285;SDS011;2665;53.112;7.358;2023-04-15T02:49:26;8.20;;;3.10;;
5285;SDS011;2665;53.112;7.358;2023-04-15T02:51:53;3.70;;;2.70;;
5285;SDS011;2665;53.112;7.358;2023-04-15T02:54:19;4.03;;;2.90;;
5285;SDS011;2665;53.112;7.358;2023-04-15T02:56:46;5.57;;;3.70;;
5285;SDS011;2665;53.112;7.358;2023-04-15T02:59:12;4.27;;;3.37;;
5285;SDS011;2665;53.112;7.358;2023-04-15T03:01:38;6.10;;;2.80;;
5285;SDS011;2665;53.112;7.358;2023-04-15T03:04:03;4.43;;;3.20;;
5285;SDS011;2665;53.112;7.358;2023-04-15T03:06:29;6.73;;;2.77;;
5285;SDS011;2665;53.112;7.358;2023-04-15T03:08:55;4.13;;;2.80;;
5285;SDS011;2665;53.112;7.358;2023-04-15T03:11:21;4.77;;;3.23;;
5285;SDS011;2665;53.112;7.358;2023-04-15T03:13:47;4.37;;;2.83;;
5285;SDS011;2665;53.112;7.358;2023-04-15T03:16:12;7.93;;;3.50;;
5285;SDS011;2665;53.112;7.358;2023-04-15T03:18:38;4.07;;;2.73;;
5285;SDS011;2665;53.112;7.358;2023-04-15T03:21:04;6.93;;;4.40;;
5285;SDS011;2665;53.112;7.358;2023-04-15T03:23:30;7.30;;;4.30;;
5285;SDS011;2665;53.112;7.358;2023-04-15T03:25:56;4.43;;;3.30;;
5285;SDS011;2665;53.112;7.358;2023-04-15T03:28:23;6.97;;;4.00;;
5285;SDS011;2665;53.112;7.358;2023-04-15T03:30:48;6.00;;;3.60;;
5285;SDS011;2665;53.112;7.358;2023-04-15T03:33:14;4.83;;;3.63;;
5285;SDS011;2665;53.112;7.358;2023-04-15T03:35:40;4.77;;;3.77;;
5285;SDS011;2665;53.112;7.358;2023-04-15T03:38:05;5.73;;;4.10;;
5285;SDS011;2665;53.112;7.358;2023-04-15T03:40:31;6.67;;;4.70;;
5285;SDS011;2665;53.112;7.358;2023-04-15T03:42:57;9.83;;;4.50;;
5285;SDS011;2665;53.112;7.358;2023-04-15T03:45:24;5.97;;;3.90;;
5285;SDS011;2665;53.112;7.358;2023-04-15T03:47:50;5.60;;;3.30;;
5285;SDS011;2665;53.112;7.358;2023-04-15T03:50:15;7.10;;;4.73;;
5285;SDS011;2665;53.112;7.358;2023-04-15T03:52:41;6.57;;;3.57;;
5285;SDS011;2665;53.112;7.358;2023-04-15T03:55:07;8.50;;;3.63;;
5285;SDS011;2665;53.112;7.358;2023-04-15T03:57:33;6.27;;;4.50;;
5285;SDS011;2665;53.112;7.358;2023-04-15T04:00:02;9.10;;;5.60;;
5285;SDS011;2665;53.112;7.358;2023-04-15T04:02:29;9.70;;;5.10;;
5285;SDS011;2665;53.112;7.358;2023-04-15T04:04:55;10.30;;;4.83;;
5285;SDS011;2665;53.112;7.358;2023-04-15T04:07:22;8.20;;;5.93;;
5285;SDS011;2665;53.112;7.358;2023-04-15T04:09:48;8.33;;;4.70;;
5285;SDS011;2665;53.112;7.358;2023-04-15T04:12:13;7.43;;;4.83;;
5285;SDS011;2665;53.112;7.358;2023-04-15T04:14:39;7.97;;;4.53;;
5285;SDS011;2665;53.112;7.358;2023-04-15T04:17:05;8.17;;;5.00;;
5285;SDS011;2665;53.112;7.358;2023-04-15T04:19:30;6.10;;;4.10;;
5285;SDS011;2665;53.112;7.358;2023-04-15T04:21:56;8.40;;;5.40;;
5285;SDS011;2665;53.112;7.358;2023-04-15T04:24:22;8.40;;;4.27;;
5285;SDS011;2665;53.112;7.358;2023-04-15T04:26:47;9.13;;;4.40;;
5285;SDS011;2665;53.112;7.358;2023-04-15T04:29:13;8.33;;;4.43;;
5285;SDS011;2665;53.112;7.358;2023-04-15T04:31:38;8.40;;;3.87;;
5285;SDS011;2665;53.112;7.358;2023-04-15T04:34:04;5.00;;;3.90;;
5285;SDS011;2665;53.112;7.358;2023-04-15T04:36:30;5.37;;;3.57;;
5285;SDS011;2665;53.112;7.358;2023-04-15T04:38:55;7.60;;;4.73;;
5285;SDS011;2665;53.112;7.358;2023-04-15T04:41:21;7.20;;;4.00;;
5285;SDS011;2665;53.112;7.358;2023-04-15T04:43:47;4.43;;;2.80;;
5285;SDS011;2665;53.112;7.358;2023-04-15T04:46:13;5.87;;;2.87;;
5285;SDS011;2665;53.112;7.358;2023-04-15T04:48:38;6.20;;;3.90;;
5285;SDS011;2665;53.112;7.358;2023-04-15T04:51:04;10.53;;;4.83;;
5285;SDS011;2665;53.112;7.358;2023-04-15T04:53:30;6.10;;;4.07;;
5285;SDS011;2665;53.112;7.358;2023-04-15T04:55:56;11.20;;;4.87;;
5285;SDS011;2665;53.112;7.358;2023-04-15T04:58:22;6.27;;;4.10;;
5285;SDS011;2665;53.112;7.358;2023-04-15T05:00:47;10.03;;;5.73;;
5285;SDS011;2665;53.112;7.358;2023-04-15T05:03:13;8.17;;;5.27;;
5285;SDS011;2665;53.112;7.358;2023-04-15T05:05:39;7.67;;;5.30;;
5285;SDS011;2665;53.112;7.358;2023-04-15T05:08:05;8.53;;;5.63;;
5285;SDS011;2665;53.112;7.358;2023-04-15T05:10:31;8.13;;;5.20;;
5285;SDS011;2665;53.112;7.358;2023-04-15T05:12:57;8.90;;;5.10;;
5285;SDS011;2665;53.112;7.358;2023-04-15T05:15:23;7.63;;;4.47;;
5285;SDS011;2665;53.112;7.358;2023-04-15T05:17:48;6.80;;;4.20;;
5285;SDS011;2665;53.112;7.358;2023-04-15T05:20:14;9.83;;;4.10;;
5285;SDS011;2665;53.112;7.358;2023-04-15T05:22:40;7.83;;;4.63;;
5285;SDS011;2665;53.112;7.358;2023-04-15T05:25:05;6.73;;;4.03;;
5285;SDS011;2665;53.112;7.358;2023-04-15T05:27:31;7.67;;;4.83;;
5285;SDS011;2665;53.112;7.358;2023-04-15T05:29:57;11.30;;;5.90;;
5285;SDS011;2665;53.112;7.358;2023-04-15T05:32:23;9.47;;;6.13;;
5285;SDS011;2665;53.112;7.358;2023-04-15T05:34:48;11.60;;;5.53;;
5285;SDS011;2665;53.112;7.358;2023-04-15T05:37:14;8.87;;;5.40;;
5285;SDS011;2665;53.112;7.358;2023-04-15T05:39:40;7.70;;;4.80;;
5285;SDS011;2665;53.112;7.358;2023-04-15T05:42:06;12.73;;;5.60;;
5285;SDS011;2665;53.112;7.358;2023-04-15T05:44:32;11.70;;;6.23;;
5285;SDS011;2665;53.112;7.358;2023-04-15T05:46:57;9.07;;;6.00;;
5285;SDS011;2665;53.112;7.358;2023-04-15T05:49:23;9.20;;;5.13;;
5285;SDS011;2665;53.112;7.358;2023-04-15T05:51:48;8.00;;;5.33;;
5285;SDS011;2665;53.112;7.358;2023-04-15T05:54:14;7.10;;;4.77;;
5285;SDS011;2665;53.112;7.358;2023-04-15T05:56:40;9.73;;;4.50;;
5285;SDS011;2665;53.112;7.358;2023-04-15T05:59:05;8.63;;;5.30;;
5285;SDS011;2665;53.112;7.358;2023-04-15T06:01:32;6.83;;;5.10;;
5285;SDS011;2665;53.112;7.358;2023-04-15T06:03:58;9.50;;;6.00;;
5285;SDS011;2665;53.112;7.358;2023-04-15T06:06:24;10.13;;;5.20;;
5285;SDS011;2665;53.112;7.358;2023-04-15T06:08:51;9.27;;;5.23;;
5285;SDS011;2665;53.112;7.358;2023-04-15T06:11:17;8.30;;;4.97;;
5285;SDS011;2665;53.112;7.358;2023-04-15T06:13:43;5.57;;;3.90;;
5285;SDS011;2665;53.112;7.358;2023-04-15T06:16:09;7.77;;;5.57;;
5285;SDS011;2665;53.112;7.358;2023-04-15T06:18:35;7.10;;;4.57;;
5285;SDS011;2665;53.112;7.358;2023-04-15T06:21:01;8.40;;;5.83;;
5285;SDS011;2665;53.112;7.358;2023-04-15T06:23:27;6.93;;;4.47;;
5285;SDS011;2665;53.112;7.358;2023-04-15T06:25:53;10.77;;;6.10;;
5285;SDS011;2665;53.112;7.358;2023-04-15T06:28:20;9.73;;;5.30;;
5285;SDS011;2665;53.112;7.358;2023-04-15T06:30:46;8.70;;;5.60;;
5285;SDS011;2665;53.112;7.358;2023-04-15T06:33:12;8.47;;;4.97;;
5285;SDS011;2665;53.112;7.358;2023-04-15T06:35:38;8.33;;;6.10;;
5285;SDS011;2665;53.112;7.358;2023-04-15T06:38:04;10.13;;;5.70;;
5285;SDS011;2665;53.112;7.358;2023-04-15T06:40:30;11.53;;;6.20;;
5285;SDS011;2665;53.112;7.358;2023-04-15T06:42:56;7.27;;;4.73;;
5285;SDS011;2665;53.112;7.358;2023-04-15T06:45:22;7.47;;;4.80;;
5285;SDS011;2665;53.112;7.358;2023-04-15T06:47:48;8.00;;;4.57;;
5285;SDS011;2665;53.112;7.358;2023-04-15T06:50:14;7.00;;;4.53;;
5285;SDS011;2665;53.112;7.358;2023-04-15T06:52:40;8.17;;;4.60;;
5285;SDS011;2665;53.112;7.358;2023-04-15T06:55:07;7.70;;;5.00;;
5285;SDS011;2665;53.112;7.358;2023-04-15T06:57:33;7.87;;;4.63;;
5285;SDS011;2665;53.112;7.358;2023-04-15T06:59:59;5.97;;;4.40;;
5285;SDS011;2665;53.112;7.358;2023-04-15T07:02:25;8.03;;;4.70;;
5285;SDS011;2665;53.112;7.358;2023-04-15T07:04:51;7.37;;;5.37;;
5285;SDS011;2665;53.112;7.358;2023-04-15T07:07:17;6.00;;;4.13;;
5285;SDS011;2665;53.112;7.358;2023-04-15T07:09:43;5.60;;;4.40;;
5285;SDS011;2665;53.112;7.358;2023-04-15T07:12:10;6.90;;;4.70;;
5285;SDS011;2665;53.112;7.358;2023-04-15T07:14:36;8.90;;;3.73;;
5285;SDS011;2665;53.112;7.358;2023-04-15T07:17:02;5.20;;;3.77;;
5285;SDS011;2665;53.112;7.358;2023-04-15T07:19:28;4.73;;;3.23;;
5285;SDS011;2665;53.112;7.358;2023-04-15T07:21:54;5.50;;;3.60;;
5285;SDS011;2665;53.112;7.358;2023-04-15T07:24:20;6.30;;;3.53;;
5285;SDS011;2665;53.112;7.358;2023-04-15T07:26:50;7.83;;;3.17;;
5285;SDS011;2665;53.112;7.358;2023-04-15T07:29:16;4.53;;;3.57;;
5285;SDS011;2665;53.112;7.358;2023-04-15T07:31:42;6.83;;;4.43;;
5285;SDS011;2665;53.112;7.358;2023-04-15T07:34:08;11.10;;;4.40;;
5285;SDS011;2665;53.112;7.358;2023-04-15T07:36:34;6.47;;;3.83;;
5285;SDS011;2665;53.112;7.358;2023-04-15T07:39:00;3.70;;;3.07;;
5285;SDS011;2665;53.112;7.358;2023-04-15T07:41:28;7.23;;;2.93;;
5285;SDS011;2665;53.112;7.358;2023-04-15T07:43:54;5.60;;;3.23;;
5285;SDS011;2665;53.112;7.358;2023-04-15T07:46:20;4.50;;;2.77;;
5285;SDS011;2665;53.112;7.358;2023-04-15T07:48:48;4.63;;;3.23;;
5285;SDS011;2665;53.112;7.358;2023-04-15T07:51:15;7.10;;;3.27;;
5285;SDS011;2665;53.112;7.358;2023-04-15T07:53:41;5.03;;;3.23;;
5285;SDS011;2665;53.112;7.358;2023-04-15T07:56:08;4.70;;;2.67;;
5285;SDS011;2665;53.112;7.358;2023-04-15T07:58:35;5.33;;;3.00;;
5285;SDS011;2665;53.112;7.358;2023-04-15T08:01:03;5.70;;;3.77;;
5285;SDS011;2665;53.112;7.358;2023-04-15T08:03:29;5.87;;;2.93;;
5285;SDS011;2665;53.112;7.358;2023-04-15T08:05:56;3.77;;;2.60;;
5285;SDS011;2665;53.112;7.358;2023-04-15T08:08:23;5.60;;;3.17;;
5285;SDS011;2665;53.112;7.358;2023-04-15T08:10:50;2.90;;;2.20;;
5285;SDS011;2665;53.112;7.358;2023-04-15T08:13:16;4.20;;;2.93;;
5285;SDS011;2665;53.112;7.358;2023-04-15T08:15:42;3.47;;;2.30;;
5285;SDS011;2665;53.112;7.358;2023-04-15T08:18:08;6.43;;;2.90;;
5285;SDS011;2665;53.112;7.358;2023-04-15T08:20:35;3.70;;;2.37;;
5285;SDS011;2665;53.112;7.358;2023-04-15T08:23:01;3.70;;;2.37;;
5285;SDS011;2665;53.112;7.358;2023-04-15T08:25:28;3.90;;;2.40;;
5285;SDS011;2665;53.112;7.358;2023-04-15T08:27:55;4.70;;;2.30;;
5285;SDS011;2665;53.112;7.358;2023-04-15T08:30:21;3.20;;;2.00;;
5285;SDS011;2665;53.112;7.358;2023-04-15T08:32:48;3.83;;;2.10;;
5285;SDS011;2665;53.112;7.358;2023-04-15T08:35:15;5.10;;;2.27;;
5285;SDS011;2665;53.112;7.358;2023-04-15T08:37:41;4.33;;;2.13;;
5285;SDS011;2665;53.112;7.358;2023-04-15T08:40:07;2.87;;;2.10;;
5285;SDS011;2665;53.112;7.358;2023-04-15T08:42:40;3.03;;;1.90;;
5285;SDS011;2665;53.112;7.358;2023-04-15T08:45:08;4.23;;;2.50;;
5285;SDS011;2665;53.112;7.358;2023-04-15T08:47:37;3.80;;;2.53;;
5285;SDS011;2665;53.112;7.358;2023-04-15T08:50:04;4.33;;;2.40;;
5285;SDS011;2665;53.112;7.358;2023-04-15T08:52:33;3.07;;;2.30;;
5285;SDS011;2665;53.112;7.358;2023-04-15T08:54:59;4.67;;;2.43;;
5285;SDS011;2665;53.112;7.358;2023-04-15T08:57:27;5.23;;;2.40;;
5285;SDS011;2665;53.112;7.358;2023-04-15T08:59:56;6.10;;;2.30;;
5285;SDS011;2665;53.112;7.358;2023-04-15T09:02:23;5.03;;;2.37;;
5285;SDS011;2665;53.112;7.358;2023-04-15T09:04:52;6.83;;;2.63;;
5285;SDS011;2665;53.112;7.358;2023-04-15T09:07:18;5.20;;;2.20;;
5285;SDS011;2665;53.112;7.358;2023-04-15T09:09:45;4.60;;;2.30;;
5285;SDS011;2665;53.112;7.358;2023-04-15T09:12:11;5.10;;;2.40;;
5285;SDS011;2665;53.112;7.358;2023-04-15T09:14:38;5.50;;;2.53;;
5285;SDS011;2665;53.112;7.358;2023-04-15T09:17:05;3.57;;;2.40;;
5285;SDS011;2665;53.112;7.358;2023-04-15T09:19:35;4.53;;;2.77;;
5285;SDS011;2665;53.112;7.358;2023-04-15T09:22:01;3.13;;;1.97;;
5285;SDS011;2665;53.112;7.358;2023-04-15T09:24:37;3.00;;;2.00;;
5285;SDS011;2665;53.112;7.358;2023-04-15T09:27:05;7.00;;;2.27;;
5285;SDS011;2665;53.112;7.358;2023-04-15T09:29:31;5.63;;;2.47;;
5285;SDS011;2665;53.112;7.358;2023-04-15T09:32:08;3.67;;;1.70;;
5285;SDS011;2665;53.112;7.358;2023-04-15T09:34:34;2.90;;;1.67;;
5285;SDS011;2665;53.112;7.358;2023-04-15T09:37:01;3.83;;;1.73;;
5285;SDS011;2665;53.112;7.358;2023-04-15T09:39:43;2.97;;;2.17;;
5285;SDS011;2665;53.112;7.358;2023-04-15T09:42:11;3.50;;;1.77;;
5285;SDS011;2665;53.112;7.358;2023-04-15T09:44:37;4.50;;;1.90;;
5285;SDS011;2665;53.112;7.358;2023-04-15T09:47:03;2.70;;;1.20;;
5285;SDS011;2665;53.112;7.358;2023-04-15T09:49:29;4.80;;;1.83;;
5285;SDS011;2665;53.112;7.358;2023-04-15T09:51:59;3.40;;;2.30;;
5285;SDS011;2665;53.112;7.358;2023-04-15T09:54:31;2.53;;;1.80;;
5285;SDS011;2665;53.112;7.358;2023-04-15T09:57:03;2.70;;;1.70;;
5285;SDS011;2665;53.112;7.358;2023-04-15T09:59:29;4.57;;;1.80;;
5285;SDS011;2665;53.112;7.358;2023-04-15T10:01:55;3.90;;;1.73;;
5285;SDS011;2665;53.112;7.358;2023-04-15T10:04:22;2.27;;;1.30;;
5285;SDS011;2665;53.112;7.358;2023-04-15T10:06:48;2.40;;;1.30;;
5285;SDS011;2665;53.112;7.358;2023-04-15T10:09:15;2.20;;;1.30;;
5285;SDS011;2665;53.112;7.358;2023-04-15T10:11:41;2.90;;;1.30;;
5285;SDS011;2665;53.112;7.358;2023-04-15T10:14:08;2.40;;;1.30;;
5285;SDS011;2665;53.112;7.358;2023-04-15T10:16:34;5.30;;;1.50;;
5285;SDS011;2665;53.112;7.358;2023-04-15T10:19:02;3.90;;;1.60;;
5285;SDS011;2665;53.112;7.358;2023-04-15T10:21:29;5.07;;;2.17;;
5285;SDS011;2665;53.112;7.358;2023-04-15T10:23:56;3.07;;;1.60;;
5285;SDS011;2665;53.112;7.358;2023-04-15T10:26:23;4.23;;;1.40;;
5285;SDS011;2665;53.112;7.358;2023-04-15T10:28:49;2.47;;;1.43;;
5285;SDS011;2665;53.112;7.358;2023-04-15T10:31:17;2.40;;;1.20;;
5285;SDS011;2665;53.112;7.358;2023-04-15T10:33:44;2.93;;;1.40;;
5285;SDS011;2665;53.112;7.358;2023-04-15T10:36:11;2.30;;;1.30;;
5285;SDS011;2665;53.112;7.358;2023-04-15T10:38:41;2.83;;;1.50;;
5285;SDS011;2665;53.112;7.358;2023-04-15T10:43:37;4.73;;;1.83;;
5285;SDS011;2665;53.112;7.358;2023-04-15T10:46:06;4.27;;;1.60;;
5285;SDS011;2665;53.112;7.358;2023-04-15T10:48:32;3.97;;;1.57;;
5285;SDS011;2665;53.112;7.358;2023-04-15T10:51:01;2.80;;;1.60;;
5285;SDS011;2665;53.112;7.358;2023-04-15T10:53:28;2.87;;;1.43;;
5285;SDS011;2665;53.112;7.358;2023-04-15T10:55:55;3.27;;;2.10;;
5285;SDS011;2665;53.112;7.358;2023-04-15T10:58:22;3.80;;;1.80;;
5285;SDS011;2665;53.112;7.358;2023-04-15T11:00:49;2.60;;;1.20;;
5285;SDS011;2665;53.112;7.358;2023-04-15T11:03:35;3.40;;;1.40;;
5285;SDS011;2665;53.112;7.358;2023-04-15T11:06:02;2.60;;;1.47;;
5285;SDS011;2665;53.112;7.358;2023-04-15T11:11:13;2.70;;;1.20;;
5285;SDS011;2665;53.112;7.358;2023-04-15T11:13:46;2.20;;;1.13;;
5285;SDS011;2665;53.112;7.358;2023-04-15T11:16:12;5.37;;;1.83;;
5285;SDS011;2665;53.112;7.358;2023-04-15T11:18:38;2.50;;;1.40;;
5285;SDS011;2665;53.112;7.358;2023-04-15T11:21:05;2.10;;;1.30;;
5285;SDS011;2665;53.112;7.358;2023-04-15T11:25:58;1.97;;;1.10;;
5285;SDS011;2665;53.112;7.358;2023-04-15T11:28:25;4.47;;;1.57;;
5285;SDS011;2665;53.112;7.358;2023-04-15T11:30:52;2.30;;;1.40;;
5285;SDS011;2665;53.112;7.358;2023-04-15T11:33:19;2.13;;;1.20;;
5285;SDS011;2665;53.112;7.358;2023-04-15T11:35:46;2.60;;;1.40;;
5285;SDS011;2665;53.112;7.358;2023-04-15T11:38:13;2.50;;;1.60;;
5285;SDS011;2665;53.112;7.358;2023-04-15T11:40:39;3.00;;;1.67;;
5285;SDS011;2665;53.112;7.358;2023-04-15T11:43:06;2.40;;;1.20;;
5285;SDS011;2665;53.112;7.358;2023-04-15T11:45:33;7.73;;;1.30;;
5285;SDS011;2665;53.112;7.358;2023-04-15T11:48:06;6.97;;;1.73;;
5285;SDS011;2665;53.112;7.358;2023-04-15T11:50:32;2.80;;;1.33;;
5285;SDS011;2665;53.112;7.358;2023-04-15T11:53:06;2.63;;;1.27;;
5285;SDS011;2665;53.112;7.358;2023-04-15T12:00:47;3.60;;;1.20;;
5285;SDS011;2665;53.112;7.358;2023-04-15T12:03:18;4.33;;;1.27;;
5285;SDS011;2665;53.112;7.358;2023-04-15T12:08:49;3.23;;;1.50;;
5285;SDS011;2665;53.112;7.358;2023-04-15T12:11:16;2.90;;;1.47;;
5285;SDS011;2665;53.112;7.358;2023-04-15T12:13:43;7.00;;;1.20;;
5285;SDS011;2665;53.112;7.358;2023-04-15T12:16:09;4.53;;;1.20;;
5285;SDS011;2665;53.112;7.358;2023-04-15T12:18:38;3.30;;;1.30;;
5285;SDS011;2665;53.112;7.358;2023-04-15T12:21:08;3.60;;;1.43;;
5285;SDS011;2665;53.112;7.358;2023-04-15T12:23:39;3.50;;;1.47;;
5285;SDS011;2665;53.112;7.358;2023-04-15T12:26:05;3.00;;;1.50;;
5285;SDS011;2665;53.112;7.358;2023-04-15T12:28:32;3.40;;;1.50;;
5285;SDS011;2665;53.112;7.358;2023-04-15T12:31:05;9.27;;;1.53;;
5285;SDS011;2665;53.112;7.358;2023-04-15T12:33:32;10.93;;;1.90;;
5285;SDS011;2665;53.112;7.358;2023-04-15T12:35:58;3.20;;;1.37;;
5285;SDS011;2665;53.112;7.358;2023-04-15T12:38:24;5.20;;;1.97;;
5285;SDS011;2665;53.112;7.358;2023-04-15T12:40:50;4.10;;;1.60;;
5285;SDS011;2665;53.112;7.358;2023-04-15T12:43:16;4.00;;;1.60;;
5285;SDS011;2665;53.112;7.358;2023-04-15T12:45:43;5.00;;;1.60;;
5285;SDS011;2665;53.112;7.358;2023-04-15T12:48:09;6.67;;;2.07;;
5285;SDS011;2665;53.112;7.358;2023-04-15T12:50:35;2.67;;;1.40;;
5285;SDS011;2665;53.112;7.358;2023-04-15T12:53:01;5.83;;;1.60;;
5285;SDS011;2665;53.112;7.358;2023-04-15T12:55:27;4.20;;;1.80;;
5285;SDS011;2665;53.112;7.358;2023-04-15T12:57:54;6.53;;;2.00;;
5285;SDS011;2665;53.112;7.358;2023-04-15T13:00:21;2.50;;;1.47;;
5285;SDS011;2665;53.112;7.358;2023-04-15T13:02:47;4.93;;;1.63;;
5285;SDS011;2665;53.112;7.358;2023-04-15T13:05:13;2.93;;;1.23;;
5285;SDS011;2665;53.112;7.358;2023-04-15T13:07:40;2.70;;;1.83;;
5285;SDS011;2665;53.112;7.358;2023-04-15T13:10:06;3.13;;;1.50;;
5285;SDS011;2665;53.112;7.358;2023-04-15T13:12:32;4.47;;;2.10;;
5285;SDS011;2665;53.112;7.358;2023-04-15T13:15:02;9.00;;;2.07;;
5285;SDS011;2665;53.112;7.358;2023-04-15T13:17:28;4.13;;;1.90;;
5285;SDS011;2665;53.112;7.358;2023-04-15T13:19:54;5.33;;;2.83;;
5285;SDS011;2665;53.112;7.358;2023-04-15T13:22:21;6.70;;;1.60;;
5285;SDS011;2665;53.112;7.358;2023-04-15T13:24:47;5.43;;;1.60;;
5285;SDS011;2665;53.112;7.358;2023-04-15T13:27:13;2.40;;;1.53;;
5285;SDS011;2665;53.112;7.358;2023-04-15T13:29:39;3.87;;;2.00;;
5285;SDS011;2665;53.112;7.358;2023-04-15T13:32:05;3.00;;;1.87;;
5285;SDS011;2665;53.112;7.358;2023-04-15T13:34:31;4.43;;;1.50;;
5285;SDS011;2665;53.112;7.358;2023-04-15T13:36:57;4.93;;;1.93;;
5285;SDS011;2665;53.112;7.358;2023-04-15T13:39:23;4.73;;;1.90;;
5285;SDS011;2665;53.112;7.358;2023-04-15T13:41:50;5.63;;;1.80;;
5285;SDS011;2665;53.112;7.358;2023-04-15T13:44:16;4.67;;;2.10;;
5285;SDS011;2665;53.112;7.358;2023-04-15T13:46:42;6.33;;;2.27;;
5285;SDS011;2665;53.112;7.358;2023-04-15T13:49:08;5.30;;;1.60;;
5285;SDS011;2665;53.112;7.358;2023-04-15T13:51:34;7.33;;;2.07;;
5285;SDS011;2665;53.112;7.358;2023-04-15T13:54:01;7.13;;;2.20;;
5285;SDS011;2665;53.112;7.358;2023-04-15T13:56:27;3.50;;;1.57;;
5285;SDS011;2665;53.112;7.358;2023-04-15T13:58:53;5.33;;;1.83;;
5285;SDS011;2665;53.112;7.358;2023-04-15T14:01:23;6.60;;;2.80;;
5285;SDS011;2665;53.112;7.358;2023-04-15T14:03:49;7.00;;;1.80;;
5285;SDS011;2665;53.112;7.358;2023-04-15T14:06:15;6.17;;;2.73;;
5285;SDS011;2665;53.112;7.358;2023-04-15T14:08:41;5.83;;;2.30;;
5285;SDS011;2665;53.112;7.358;2023-04-15T14:11:07;7.77;;;2.13;;
5285;SDS011;2665;53.112;7.358;2023-04-15T14:13:33;4.37;;;2.20;;
5285;SDS011;2665;53.112;7.358;2023-04-15T14:15:59;6.47;;;2.10;;
5285;SDS011;2665;53.112;7.358;2023-04-15T14:18:25;5.40;;;2.13;;
5285;SDS011;2665;53.112;7.358;2023-04-15T14:20:52;7.93;;;1.80;;
5285;SDS011;2665;53.112;7.358;2023-04-15T14:23:18;2.53;;;1.60;;
5285;SDS011;2665;53.112;7.358;2023-04-15T14:25:44;4.70;;;1.80;;
5285;SDS011;2665;53.112;7.358;2023-04-15T14:28:10;15.07;;;2.20;;
5285;SDS011;2665;53.112;7.358;2023-04-15T14:30:36;7.30;;;1.90;;
5285;SDS011;2665;53.112;7.358;2023-04-15T14:33:02;5.43;;;1.93;;
5285;SDS011;2665;53.112;7.358;2023-04-15T14:35:28;10.67;;;2.20;;
5285;SDS011;2665;53.112;7.358;2023-04-15T14:37:55;4.60;;;2.93;;
5285;SDS011;2665;53.112;7.358;2023-04-15T14:40:21;7.70;;;2.70;;
5285;SDS011;2665;53.112;7.358;2023-04-15T14:42:47;3.50;;;2.50;;
5285;SDS011;2665;53.112;7.358;2023-04-15T14:45:13;4.13;;;2.70;;
5285;SDS011;2665;53.112;7.358;2023-04-15T14:47:40;6.50;;;2.67;;
5285;SDS011;2665;53.112;7.358;2023-04-15T14:50:06;5.47;;;2.90;;
5285;SDS011;2665;53.112;7.358;2023-04-15T14:52:32;4.23;;;2.60;;
5285;SDS011;2665;53.112;7.358;2023-04-15T14:55:06;5.17;;;3.17;;
5285;SDS011;2665;53.112;7.358;2023-04-15T14:57:32;7.20;;;3.00;;
5285;SDS011;2665;53.112;7.358;2023-04-15T14:59:58;6.30;;;3.00;;
5285;SDS011;2665;53.112;7.358;2023-04-15T15:02:24;8.00;;;4.00;;
5285;SDS011;2665;53.112;7.358;2023-04-15T15:04:50;6.93;;;3.07;;
5285;SDS011;2665;53.112;7.358;2023-04-15T15:07:16;6.00;;;2.90;;
5285;SDS011;2665;53.112;7.358;2023-04-15T15:09:42;8.77;;;2.90;;
5285;SDS011;2665;53.112;7.358;2023-04-15T15:12:08;9.00;;;3.70;;
5285;SDS011;2665;53.112;7.358;2023-04-15T15:14:35;5.10;;;3.00;;
5285;SDS011;2665;53.112;7.358;2023-04-15T15:17:01;4.17;;;3.20;;
5285;SDS011;2665;53.112;7.358;2023-04-15T15:19:28;7.33;;;3.77;;
5285;SDS011;2665;53.112;7.358;2023-04-15T15:21:54;11.80;;;4.27;;
5285;SDS011;2665;53.112;7.358;2023-04-15T15:24:20;6.53;;;3.80;;
5285;SDS011;2665;53.112;7.358;2023-04-15T15:26:46;15.60;;;5.30;;